createdAt,value
2018-01-06T00:01:19.168Z,91.16
2018-01-06T00:03:47.440Z,92.08
2018-01-06T00:06:15.754Z,92.10
2018-01-06T00:08:44.078Z,92.44
2018-01-06T00:11:12.399Z,92.92
2018-01-06T00:13:40.697Z,91.50
2018-01-06T00:16:08.983Z,90.10
2018-01-06T00:18:37.243Z,92.07
2018-01-06T00:21:05.542Z,92.28
2018-01-06T00:23:33.856Z,92.21
2018-01-06T00:26:02.172Z,92.50
2018-01-06T00:28:31.275Z,92.20
2018-01-06T00:30:59.532Z,92.73
2018-01-06T00:33:27.833Z,93.07
2018-01-06T00:35:56.116Z,92.90
2018-01-06T00:38:25.190Z,91.98
2018-01-06T00:40:53.428Z,92.68
2018-01-06T00:43:21.695Z,93.17
2018-01-06T00:45:49.993Z,93.12
2018-01-06T00:48:18.311Z,93.69
2018-01-06T00:50:47.383Z,93.63
2018-01-06T00:53:15.640Z,93.51
2018-01-06T00:55:43.932Z,93.44
2018-01-06T00:58:12.211Z,93.34
2018-01-06T01:00:40.468Z,93.51
2018-01-06T01:03:08.723Z,93.52
2018-01-06T01:05:36.996Z,93.72
2018-01-06T01:08:05.243Z,93.42
2018-01-06T01:10:34.288Z,93.33
2018-01-06T01:13:02.549Z,93.75
2018-01-06T01:15:31.588Z,93.91
2018-01-06T01:17:59.843Z,93.95
2018-01-06T01:20:28.106Z,93.92
2018-01-06T01:22:56.350Z,94.13
2018-01-06T01:25:24.602Z,94.29
2018-01-06T01:27:53.626Z,93.88
2018-01-06T01:30:21.891Z,94.12
2018-01-06T01:32:50.917Z,94.50
2018-01-06T01:35:19.955Z,94.13
2018-01-06T01:37:48.200Z,94.67
2018-01-06T01:40:17.228Z,95.26
2018-01-06T01:42:45.499Z,95.22
2018-01-06T01:45:14.515Z,95.36
2018-01-06T01:47:42.787Z,95.74
2018-01-06T01:50:11.816Z,96.06
2018-01-06T01:52:40.072Z,96.42
2018-01-06T01:55:08.333Z,96.52
2018-01-06T01:57:36.602Z,96.44
2018-01-06T02:00:04.879Z,96.32
2018-01-06T02:02:33.132Z,96.50
2018-01-06T02:05:01.404Z,96.81
2018-01-06T02:07:29.661Z,96.40
2018-01-06T02:09:57.915Z,96.55
2018-01-06T02:12:26.936Z,96.66
2018-01-06T02:14:55.195Z,97.04
2018-01-06T02:17:24.208Z,96.87
2018-01-06T02:19:52.467Z,96.84
2018-01-06T02:22:20.709Z,96.49
2018-01-06T02:24:48.980Z,96.39
2018-01-06T02:27:17.980Z,96.82
2018-01-06T02:29:47.017Z,96.26
2018-01-06T02:32:15.368Z,96.06
2018-01-06T02:34:43.616Z,96.12
2018-01-06T02:37:11.895Z,96.51
2018-01-06T02:39:40.152Z,96.15
2018-01-06T02:42:09.182Z,96.10
2018-01-06T02:44:37.441Z,96.24
2018-01-06T02:47:06.468Z,96.51
2018-01-06T02:49:34.735Z,96.76
2018-01-06T02:52:03.761Z,96.72
2018-01-06T02:54:32.051Z,96.67
2018-01-06T02:57:00.316Z,96.83
2018-01-06T02:59:29.337Z,96.77
2018-01-06T03:01:58.545Z,96.67
2018-01-06T03:04:27.569Z,96.76
2018-01-06T03:06:55.830Z,96.74
2018-01-06T03:09:24.843Z,96.61
2018-01-06T03:11:53.919Z,96.20
2018-01-06T03:14:22.168Z,96.17
2018-01-06T03:16:50.435Z,96.15
2018-01-06T03:19:19.449Z,96.38
2018-01-06T03:21:47.723Z,96.36
2018-01-06T03:24:16.746Z,96.16
2018-01-06T03:26:45.012Z,96.09
2018-01-06T03:29:14.037Z,96.38
2018-01-06T03:31:43.055Z,96.65
2018-01-06T03:34:11.304Z,96.86
2018-01-06T03:36:39.624Z,97.08
2018-01-06T03:39:08.641Z,97.07
2018-01-06T03:41:36.912Z,97.04
2018-01-06T03:44:05.933Z,97.14
2018-01-06T03:46:34.196Z,97.13
2018-01-06T03:49:03.208Z,97.34
2018-01-06T03:51:32.259Z,97.44
2018-01-06T03:54:00.504Z,97.44
2018-01-06T03:56:29.542Z,97.57
2018-01-06T03:58:57.788Z,97.81
2018-01-06T04:01:26.900Z,97.79
2018-01-06T04:03:55.912Z,97.73
2018-01-06T04:06:24.924Z,97.75
2018-01-06T04:08:53.952Z,97.82
2018-01-06T04:11:22.208Z,97.73
2018-01-06T04:13:51.236Z,97.38
2018-01-06T04:16:19.520Z,97.09
2018-01-06T04:18:48.549Z,97.35
2018-01-06T04:21:16.802Z,97.32
2018-01-06T04:23:45.824Z,97.33
2018-01-06T04:26:14.084Z,97.26
2018-01-06T04:28:42.344Z,97.12
2018-01-06T04:31:10.621Z,97.10
2018-01-06T04:33:38.880Z,97.20
2018-01-06T04:36:07.180Z,97.55
2018-01-06T04:38:35.451Z,98.05
2018-01-06T04:41:04.477Z,98.22
2018-01-06T04:43:32.732Z,98.05
2018-01-06T04:46:01.768Z,97.98
2018-01-06T04:48:30.027Z,97.92
2018-01-06T04:50:59.047Z,97.63
2018-01-06T04:53:28.072Z,97.46
2018-01-06T04:55:56.320Z,97.66
2018-01-06T04:58:24.594Z,97.71
2018-01-06T05:00:52.835Z,97.97
2018-01-06T05:03:21.104Z,98.03
2018-01-06T05:05:50.128Z,97.84
2018-01-06T05:08:18.420Z,97.92
2018-01-06T05:10:46.668Z,98.10
2018-01-06T05:13:14.927Z,98.24
2018-01-06T05:15:43.185Z,98.33
2018-01-06T05:18:11.447Z,98.34
2018-01-06T05:20:39.723Z,98.43
2018-01-06T05:23:07.975Z,98.40
2018-01-06T05:25:36.236Z,98.49
2018-01-06T05:28:05.282Z,98.33
2018-01-06T05:30:33.531Z,98.16
2018-01-06T05:33:01.820Z,98.17
2018-01-06T05:35:30.834Z,98.14
2018-01-06T05:37:59.089Z,97.98
2018-01-06T05:40:27.338Z,98.03
2018-01-06T05:42:55.594Z,98.10
2018-01-06T05:45:23.863Z,98.22
2018-01-06T05:47:52.877Z,98.47
2018-01-06T05:50:21.908Z,98.22
2018-01-06T05:52:50.157Z,98.33
2018-01-06T05:55:18.419Z,98.43
2018-01-06T05:57:46.668Z,98.59
2018-01-06T06:00:14.938Z,98.55
2018-01-06T06:02:43.957Z,98.32
2018-01-06T06:05:12.235Z,98.42
2018-01-06T06:07:41.276Z,98.44
2018-01-06T06:10:10.296Z,98.55
2018-01-06T06:12:38.543Z,98.47
2018-01-06T06:15:06.808Z,98.65
2018-01-06T06:17:35.051Z,98.71
2018-01-06T06:20:03.330Z,98.69
2018-01-06T06:22:31.576Z,98.42
2018-01-06T06:24:59.842Z,98.55
2018-01-06T06:27:28.097Z,98.53
2018-01-06T06:29:56.374Z,98.63
2018-01-06T06:32:24.637Z,98.89
2018-01-06T06:34:52.907Z,99.03
2018-01-06T06:37:21.156Z,99.16
2018-01-06T06:39:49.432Z,99.27
2018-01-06T06:42:17.685Z,99.33
2018-01-06T06:44:45.948Z,99.10
2018-01-06T06:47:15.036Z,99.12
2018-01-06T06:49:43.251Z,99.34
2018-01-06T06:52:11.532Z,99.51
2018-01-06T06:54:39.812Z,99.51
2018-01-06T06:57:08.080Z,99.48
2018-01-06T06:59:36.320Z,99.50
2018-01-06T07:02:04.620Z,99.57
2018-01-06T07:04:32.875Z,99.49
2018-01-06T07:07:01.144Z,99.17
2018-01-06T07:09:29.399Z,98.98
2018-01-06T07:11:58.421Z,98.87
2018-01-06T07:14:26.672Z,98.72
2018-01-06T07:16:55.079Z,98.76
2018-01-06T07:19:24.095Z,98.73
2018-01-06T07:21:53.147Z,98.57
2018-01-06T07:24:21.390Z,98.57
2018-01-06T07:26:50.421Z,98.29
2018-01-06T07:29:18.662Z,98.72
2018-01-06T07:31:46.921Z,98.30
2018-01-06T07:34:15.153Z,98.29
2018-01-06T07:36:44.210Z,98.42
2018-01-06T07:39:12.480Z,98.49
2018-01-06T07:41:40.744Z,98.61
2018-01-06T07:44:09.760Z,98.59
2018-01-06T07:46:38.796Z,98.50
2018-01-06T07:49:07.816Z,98.48
2018-01-06T07:51:36.092Z,98.28
2018-01-06T07:54:04.344Z,98.33
2018-01-06T07:56:33.966Z,98.15
2018-01-06T07:59:02.990Z,97.97
2018-01-06T08:01:31.266Z,98.07
2018-01-06T08:04:00.280Z,97.89
2018-01-06T08:06:28.541Z,97.75
2018-01-06T08:08:56.792Z,97.88
2018-01-06T08:11:25.084Z,97.92
2018-01-06T08:13:53.343Z,97.99
2018-01-06T08:16:21.621Z,98.05
2018-01-06T08:18:49.871Z,98.09
2018-01-06T08:21:18.140Z,98.00
2018-01-06T08:23:46.396Z,97.93
2018-01-06T08:26:14.762Z,97.77
2018-01-06T08:28:43.012Z,97.84
2018-01-06T08:31:11.304Z,97.71
2018-01-06T08:33:40.333Z,97.76
2018-01-06T08:36:08.713Z,97.79
2018-01-06T08:38:37.033Z,97.63
2018-01-06T08:41:06.269Z,97.64
2018-01-06T08:43:34.531Z,97.36
2018-01-06T08:46:03.556Z,97.13
2018-01-06T08:48:31.843Z,97.29
2018-01-06T08:51:00.872Z,97.21
2018-01-06T08:53:29.136Z,97.31
2018-01-06T08:55:58.145Z,97.16
2018-01-06T08:58:26.656Z,96.99
2018-01-06T09:00:55.689Z,97.05
2018-01-06T09:03:24.398Z,97.06
2018-01-06T09:05:53.058Z,97.00
2018-01-06T09:08:21.379Z,96.90
2018-01-06T09:10:49.850Z,96.58
2018-01-06T09:13:18.468Z,96.76
2018-01-06T09:15:46.899Z,96.84
2018-01-06T09:18:15.272Z,96.96
2018-01-06T09:20:43.576Z,97.03
2018-01-06T09:23:12.307Z,96.43
2018-01-06T09:25:40.680Z,96.57
2018-01-06T09:28:10.144Z,96.74
2018-01-06T09:30:38.893Z,96.03
2018-01-06T09:33:08.526Z,95.54
2018-01-06T09:35:37.750Z,95.57
2018-01-06T09:38:06.584Z,94.99
2018-01-06T09:40:35.125Z,94.02
2018-01-06T09:43:04.140Z,93.95
2018-01-06T09:45:32.720Z,94.04
2018-01-06T09:48:02.208Z,93.34
2018-01-06T09:50:30.939Z,92.51
2018-01-06T09:53:00.530Z,93.30
2018-01-06T09:55:29.087Z,93.53
2018-01-06T09:57:57.904Z,92.75
2018-01-06T10:00:26.187Z,92.40
2018-01-06T10:02:54.725Z,92.48
2018-01-06T10:05:23.323Z,92.01
2018-01-06T10:07:53.564Z,91.87
2018-01-06T10:10:22.229Z,92.16
2018-01-06T10:12:51.211Z,91.12
2018-01-06T10:15:19.802Z,89.78
2018-01-06T10:17:48.295Z,89.55
2018-01-06T10:20:16.697Z,89.32
2018-01-06T10:22:45.076Z,89.35
2018-01-06T10:25:13.432Z,88.74
2018-01-06T10:27:42.870Z,88.67
2018-01-06T10:30:12.691Z,88.67
2018-01-06T10:32:42.091Z,86.15
2018-01-06T10:35:10.523Z,85.71
2018-01-06T10:37:38.991Z,85.20
2018-01-06T10:40:07.411Z,85.24
2018-01-06T10:42:36.763Z,86.68
2018-01-06T10:45:05.105Z,87.90
2018-01-06T10:47:34.868Z,87.37
2018-01-06T10:50:03.226Z,87.89
2018-01-06T10:52:32.883Z,86.06
2018-01-06T10:55:01.507Z,86.38
2018-01-06T10:57:30.196Z,88.13
2018-01-06T10:59:58.543Z,87.60
2018-01-06T11:02:26.914Z,87.74
2018-01-06T11:04:55.599Z,88.25
2018-01-06T11:07:24.038Z,87.72
2018-01-06T11:09:52.739Z,86.74
2018-01-06T11:12:21.064Z,87.71
2018-01-06T11:14:49.537Z,88.33
2018-01-06T11:17:18.259Z,87.16
2018-01-06T11:19:47.014Z,87.23
2018-01-06T11:22:15.402Z,86.94
2018-01-06T11:24:44.703Z,86.60
2018-01-06T11:27:14.047Z,86.39
2018-01-06T11:29:42.456Z,85.71
2018-01-06T11:32:11.307Z,85.11
2018-01-06T11:34:40.544Z,82.29
2018-01-06T11:37:09.696Z,83.63
2018-01-06T11:39:38.355Z,82.50
2018-01-06T11:42:07.086Z,81.90
2018-01-06T11:44:35.620Z,81.19
2018-01-06T11:47:05.065Z,82.55
2018-01-06T11:49:33.639Z,84.28
2018-01-06T11:52:02.730Z,83.21
2018-01-06T11:54:31.150Z,83.70
2018-01-06T11:56:59.927Z,83.95
2018-01-06T11:59:28.576Z,84.01
2018-01-06T12:01:56.991Z,84.20
2018-01-06T12:04:25.700Z,85.08
2018-01-06T12:06:54.410Z,84.41
2018-01-06T12:09:23.166Z,84.07
2018-01-06T12:11:52.656Z,82.56
2018-01-06T12:14:21.274Z,84.03
2018-01-06T12:16:50.581Z,84.83
2018-01-06T12:19:19.090Z,83.29
2018-01-06T12:21:47.495Z,80.58
2018-01-06T12:24:16.137Z,80.17
2018-01-06T12:26:44.999Z,80.01
2018-01-06T12:29:13.833Z,80.97
2018-01-06T12:31:42.353Z,79.32
2018-01-06T12:34:10.788Z,81.14
2018-01-06T12:36:39.745Z,81.27
2018-01-06T12:39:09.353Z,80.52
2018-01-06T12:41:38.872Z,80.26
2018-01-06T12:44:07.418Z,80.70
2018-01-06T12:46:35.917Z,81.22
2018-01-06T12:49:04.577Z,82.35
2018-01-06T12:51:33.729Z,82.62
2018-01-06T12:54:02.984Z,81.55
2018-01-06T12:56:32.898Z,81.29
2018-01-06T12:59:01.827Z,81.59
2018-01-06T13:01:31.381Z,82.01
2018-01-06T13:03:59.964Z,82.26
2018-01-06T13:06:30.523Z,82.36
2018-01-06T13:08:59.353Z,83.04
2018-01-06T13:11:27.837Z,82.34
2018-01-06T13:13:56.267Z,82.52
2018-01-06T13:16:25.414Z,81.54
2018-01-06T13:18:53.914Z,79.44
2018-01-06T13:21:23.526Z,82.72
2018-01-06T13:23:51.841Z,81.49
2018-01-06T13:26:20.613Z,83.54
2018-01-06T13:28:49.244Z,81.98
2018-01-06T13:31:17.846Z,82.90
2018-01-06T13:33:46.238Z,83.36
2018-01-06T13:36:14.768Z,82.84
2018-01-06T13:38:44.948Z,81.79
2018-01-06T13:41:13.436Z,82.47
2018-01-06T13:43:42.768Z,81.10
2018-01-06T13:46:11.416Z,81.29
2018-01-06T13:48:40.179Z,80.87
2018-01-06T13:51:08.791Z,80.63
2018-01-06T13:53:37.680Z,80.22
2018-01-06T13:56:06.305Z,78.33
2018-01-06T13:58:35.477Z,79.92
2018-01-06T14:01:05.279Z,78.19
2018-01-06T14:03:33.585Z,77.92
2018-01-06T14:06:01.836Z,78.96
2018-01-06T14:08:30.128Z,79.08
2018-01-06T14:10:58.396Z,78.75
2018-01-06T14:13:27.461Z,79.07
2018-01-06T14:15:55.728Z,78.37
2018-01-06T14:18:24.120Z,79.58
2018-01-06T14:20:52.436Z,78.18
2018-01-06T14:23:21.505Z,79.58
2018-01-06T14:25:49.764Z,79.27
2018-01-06T14:28:18.843Z,79.03
2018-01-06T14:30:47.100Z,78.99
2018-01-06T14:33:15.372Z,80.32
2018-01-06T14:35:43.639Z,78.76
2018-01-06T14:38:12.683Z,77.31
2018-01-06T14:40:40.984Z,78.96
2018-01-06T14:43:09.299Z,79.56
2018-01-06T14:45:37.613Z,79.59
2018-01-06T14:48:07.211Z,80.30
2018-01-06T14:50:35.462Z,80.76
2018-01-06T14:53:03.716Z,82.05
2018-01-06T14:55:32.805Z,81.21
2018-01-06T14:58:01.071Z,80.14
2018-01-06T15:00:29.398Z,81.12
2018-01-06T15:02:58.423Z,81.57
2018-01-06T15:05:26.742Z,81.37
2018-01-06T15:07:55.040Z,81.96
2018-01-06T15:10:23.345Z,81.91
2018-01-06T15:12:51.595Z,82.34
2018-01-06T15:15:19.846Z,83.11
2018-01-06T15:17:48.858Z,83.23
2018-01-06T15:20:17.905Z,84.24
2018-01-06T15:22:46.160Z,84.20
2018-01-06T15:25:15.261Z,84.79
2018-01-06T15:27:44.345Z,85.36
2018-01-06T15:30:12.613Z,86.36
2018-01-06T15:32:40.928Z,86.63
2018-01-06T15:35:09.204Z,86.36
2018-01-06T15:37:37.514Z,86.63
2018-01-06T15:40:05.835Z,87.13
2018-01-06T15:42:34.893Z,87.63
2018-01-06T15:45:04.684Z,88.13
2018-01-06T15:47:32.977Z,89.39
2018-01-06T15:50:01.289Z,90.50
2018-01-06T15:52:29.615Z,90.12
2018-01-06T15:54:57.872Z,91.38
2018-01-06T15:57:26.124Z,92.32
2018-01-06T15:59:54.388Z,93.03
2018-01-06T16:02:23.457Z,93.88
2018-01-06T16:04:51.868Z,94.49
2018-01-06T16:07:20.116Z,94.66
2018-01-06T16:09:48.377Z,94.80
2018-01-06T16:12:16.634Z,94.89
2018-01-06T16:14:44.940Z,95.32
2018-01-06T16:17:13.974Z,95.27
2018-01-06T16:19:42.328Z,95.53
2018-01-06T16:22:10.631Z,95.94
2018-01-06T16:24:39.692Z,96.01
2018-01-06T16:27:07.973Z,96.14
2018-01-06T16:29:36.265Z,96.64
2018-01-06T16:32:04.570Z,96.89
2018-01-06T16:34:32.865Z,96.98
2018-01-06T16:37:01.886Z,97.19
2018-01-06T16:39:30.140Z,97.44
2018-01-06T16:41:58.420Z,97.42
2018-01-06T16:44:26.672Z,97.56
2018-01-06T16:46:55.772Z,97.92
2018-01-06T16:49:24.809Z,97.94
2018-01-06T16:51:53.113Z,98.20
2018-01-06T16:54:21.413Z,98.30
2018-01-06T16:56:49.682Z,98.46
2018-01-06T16:59:17.974Z,98.05
2018-01-06T17:01:46.240Z,97.95
2018-01-06T17:04:15.284Z,98.10
2018-01-06T17:06:43.650Z,98.27
2018-01-06T17:09:11.905Z,98.10
2018-01-06T17:11:40.222Z,98.28
2018-01-06T17:14:08.546Z,98.82
2018-01-06T17:16:36.819Z,98.70
2018-01-06T17:19:05.887Z,98.66
2018-01-06T17:21:34.206Z,98.34
2018-01-06T17:24:02.512Z,98.47
2018-01-06T17:26:30.807Z,98.83
2018-01-06T17:28:59.080Z,98.92
2018-01-06T17:31:27.399Z,99.15
2018-01-06T17:33:55.800Z,99.09
2018-01-06T17:36:24.110Z,99.11
2018-01-06T17:38:52.340Z,99.12
2018-01-06T17:41:20.607Z,98.74
2018-01-06T17:43:50.043Z,98.50
2018-01-06T17:46:18.312Z,98.67
2018-01-06T17:48:47.377Z,98.61
2018-01-06T17:51:16.488Z,98.77
2018-01-06T17:53:44.739Z,98.73
2018-01-06T17:56:12.997Z,98.47
2018-01-06T17:58:42.087Z,98.58
2018-01-06T18:01:10.392Z,98.96
2018-01-06T18:03:38.761Z,99.17
2018-01-06T18:06:07.035Z,99.51
2018-01-06T18:08:35.389Z,99.53
2018-01-06T18:11:03.641Z,99.51
2018-01-06T18:13:31.905Z,99.51
2018-01-06T18:16:00.160Z,99.41
2018-01-06T18:18:28.427Z,99.59
2018-01-06T18:20:56.726Z,99.57
2018-01-06T18:23:25.765Z,99.40
2018-01-06T18:25:54.013Z,99.23
2018-01-06T18:28:23.208Z,99.50
2018-01-06T18:30:51.595Z,99.77
2018-01-06T18:33:19.925Z,99.80
2018-01-06T18:35:48.287Z,99.90
2018-01-06T18:38:16.569Z,100.00
2018-01-06T18:40:45.051Z,100.00
2018-01-06T18:43:13.354Z,100.00
2018-01-06T18:45:41.905Z,100.00
2018-01-06T18:48:10.214Z,100.00
2018-01-06T18:50:38.722Z,100.00
2018-01-06T18:53:08.044Z,100.00
2018-01-06T18:55:36.604Z,100.00
2018-01-06T18:58:04.866Z,100.00
2018-01-06T19:00:33.456Z,99.43
2018-01-06T19:03:01.786Z,99.14
2018-01-06T19:05:30.062Z,99.34
2018-01-06T19:07:58.396Z,99.19
2018-01-06T19:10:26.739Z,99.18
2018-01-06T19:12:55.783Z,99.30
2018-01-06T19:15:25.357Z,99.25
2018-01-06T19:17:53.689Z,99.16
2018-01-06T19:20:21.950Z,99.21
2018-01-06T19:22:50.243Z,99.41
2018-01-06T19:25:18.554Z,99.06
2018-01-06T19:27:46.857Z,99.02
2018-01-06T19:30:15.124Z,99.20
2018-01-06T19:32:43.422Z,99.01
2018-01-06T19:35:11.752Z,99.15
2018-01-06T19:37:40.824Z,99.26
2018-01-06T19:40:09.143Z,99.32
2018-01-06T19:42:38.227Z,99.36
2018-01-06T19:45:08.002Z,99.21
2018-01-06T19:47:37.074Z,99.33
2018-01-06T19:50:05.411Z,99.33
2018-01-06T19:52:33.733Z,99.46
2018-01-06T19:55:02.055Z,99.61
2018-01-06T19:57:31.125Z,99.78
2018-01-06T19:59:59.440Z,99.81
2018-01-06T20:02:28.511Z,99.70
2018-01-06T20:04:57.985Z,99.79
2018-01-06T20:07:27.046Z,99.51
2018-01-06T20:09:55.393Z,99.38
2018-01-06T20:12:23.691Z,99.38
2018-01-06T20:14:52.029Z,99.66
2018-01-06T20:17:20.357Z,99.70
2018-01-06T20:19:48.674Z,99.54
2018-01-06T20:22:16.971Z,99.59
2018-01-06T20:24:45.337Z,99.35
2018-01-06T20:27:13.670Z,99.43
2018-01-06T20:29:42.811Z,99.24
2018-01-06T20:32:11.872Z,99.15
2018-01-06T20:34:40.250Z,99.42
2018-01-06T20:37:08.577Z,99.28
2018-01-06T20:39:36.906Z,99.45
2018-01-06T20:42:05.211Z,99.15
2018-01-06T20:44:33.555Z,99.02
2018-01-06T20:47:01.868Z,99.22
2018-01-06T20:49:30.946Z,99.38
2018-01-06T20:51:59.274Z,99.40
2018-01-06T20:54:27.586Z,99.24
2018-01-06T20:56:55.926Z,99.33
2018-01-06T20:59:24.220Z,99.11
2018-01-06T21:01:52.540Z,99.23
2018-01-06T21:04:20.844Z,99.30
2018-01-06T21:06:49.172Z,99.60
2018-01-06T21:09:17.486Z,99.69
2018-01-06T21:11:46.618Z,99.57
2018-01-06T21:14:14.891Z,99.76
2018-01-06T21:16:43.969Z,99.75
2018-01-06T21:19:13.778Z,99.27
2018-01-06T21:21:42.136Z,99.48
2018-01-06T21:24:10.444Z,99.63
2018-01-06T21:26:38.756Z,99.69
2018-01-06T21:29:07.083Z,99.90
2018-01-06T21:31:36.192Z,99.59
2018-01-06T21:34:05.279Z,99.46
2018-01-06T21:36:33.606Z,99.39
2018-01-06T21:39:01.910Z,99.43
2018-01-06T21:41:30.247Z,99.66
2018-01-06T21:43:58.551Z,99.76
2018-01-06T21:46:26.879Z,99.71
2018-01-06T21:48:55.204Z,99.87
2018-01-06T21:51:23.530Z,100.00
2018-01-06T21:53:52.617Z,100.00
2018-01-06T21:56:20.959Z,99.98
2018-01-06T21:58:49.263Z,100.00
2018-01-06T22:01:17.614Z,100.00
2018-01-06T22:03:46.686Z,100.00
2018-01-06T22:06:15.016Z,100.00
2018-01-06T22:08:44.094Z,100.00
2018-01-06T22:11:12.402Z,100.00
2018-01-06T22:13:40.742Z,100.00
2018-01-06T22:16:09.047Z,100.00
2018-01-06T22:18:37.362Z,100.00
2018-01-06T22:21:06.257Z,100.00
2018-01-06T22:23:34.579Z,100.00
2018-01-06T22:26:03.668Z,100.00
2018-01-06T22:28:31.995Z,100.00
2018-01-06T22:31:00.294Z,100.00
2018-01-06T22:33:28.598Z,100.00
2018-01-06T22:35:56.903Z,100.00
2018-01-06T22:38:25.249Z,100.00
2018-01-06T22:40:53.564Z,100.00
2018-01-06T22:43:21.880Z,100.00
2018-01-06T22:45:50.189Z,100.00
2018-01-06T22:48:18.508Z,100.00
2018-01-06T22:50:46.815Z,100.00
2018-01-06T22:53:15.161Z,100.00
2018-01-06T22:55:43.485Z,100.00
2018-01-06T22:58:11.801Z,100.00
2018-01-06T23:00:41.078Z,100.00
2018-01-06T23:03:09.394Z,100.00
2018-01-06T23:05:37.701Z,100.00
2018-01-06T23:08:06.050Z,100.00
2018-01-06T23:10:34.360Z,100.00
2018-01-06T23:13:02.693Z,100.00
2018-01-06T23:15:31.008Z,100.00
2018-01-06T23:18:00.099Z,100.00
2018-01-06T23:20:28.390Z,100.00
2018-01-06T23:22:56.732Z,100.00
2018-01-06T23:25:25.036Z,100.00
2018-01-06T23:27:54.154Z,100.00
2018-01-06T23:30:22.467Z,100.00
2018-01-06T23:32:50.787Z,100.00
2018-01-06T23:35:19.863Z,100.00
2018-01-06T23:37:48.181Z,100.00
2018-01-06T23:40:17.251Z,100.00
2018-01-06T23:42:45.567Z,100.00
2018-01-06T23:45:13.870Z,100.00
2018-01-06T23:47:42.940Z,100.00
2018-01-06T23:50:11.273Z,100.00
2018-01-06T23:52:40.347Z,100.00
2018-01-06T23:55:08.668Z,100.00
2018-01-06T23:57:36.992Z,100.00
